createdAt,value
2018-06-14T00:00:35.729Z,84.10
2018-06-14T00:03:04.076Z,83.90
2018-06-14T00:05:35.484Z,84.00
2018-06-14T00:08:03.882Z,84.10
2018-06-14T00:10:33.244Z,83.90
2018-06-14T00:13:01.617Z,84.10
2018-06-14T00:15:30.431Z,84.00
2018-06-14T00:17:58.830Z,83.70
2018-06-14T00:20:27.157Z,84.00
2018-06-14T00:22:55.517Z,84.60
2018-06-14T00:25:23.898Z,84.90
2018-06-14T00:27:52.246Z,84.80
2018-06-14T00:30:20.617Z,84.10
2018-06-14T00:32:48.948Z,83.90
2018-06-14T00:35:17.246Z,83.90
2018-06-14T00:37:45.587Z,84.00
2018-06-14T00:40:14.031Z,84.20
2018-06-14T00:42:42.407Z,84.70
2018-06-14T00:45:10.765Z,84.80
2018-06-14T00:47:39.071Z,84.90
2018-06-14T00:50:07.434Z,84.80
2018-06-14T00:52:35.819Z,84.60
2018-06-14T00:55:04.222Z,85.10
2018-06-14T00:57:33.060Z,85.20
2018-06-14T01:00:01.350Z,85.10
2018-06-14T01:02:29.687Z,85.10
2018-06-14T01:04:58.023Z,85.20
2018-06-14T01:07:26.379Z,85.00
2018-06-14T01:09:57.572Z,85.40
2018-06-14T01:12:25.926Z,85.40
2018-06-14T01:14:54.208Z,85.40
2018-06-14T01:17:22.516Z,85.70
2018-06-14T01:19:50.926Z,85.80
2018-06-14T01:22:19.227Z,86.10
2018-06-14T01:24:47.612Z,85.90
2018-06-14T01:27:16.063Z,85.90
2018-06-14T01:29:44.474Z,86.00
2018-06-14T01:32:12.817Z,86.20
2018-06-14T01:34:41.181Z,86.30
2018-06-14T01:37:09.499Z,86.40
2018-06-14T01:39:37.799Z,86.90
2018-06-14T01:42:06.153Z,86.90
2018-06-14T01:44:34.559Z,87.00
2018-06-14T01:47:02.900Z,87.20
2018-06-14T01:49:31.274Z,87.10
2018-06-14T01:51:59.687Z,87.10
2018-06-14T01:54:28.022Z,87.50
2018-06-14T01:56:56.327Z,87.60
2018-06-14T01:59:24.601Z,88.00
2018-06-14T02:01:52.948Z,88.10
2018-06-14T02:04:21.300Z,88.20
2018-06-14T02:06:50.186Z,88.20
2018-06-14T02:09:18.564Z,88.50
2018-06-14T02:11:46.920Z,88.30
2018-06-14T02:14:15.364Z,88.50
2018-06-14T02:16:43.710Z,88.40
2018-06-14T02:19:11.989Z,88.80
2018-06-14T02:21:40.324Z,88.80
2018-06-14T02:24:08.628Z,88.90
2018-06-14T02:26:36.959Z,89.40
2018-06-14T02:29:05.329Z,89.30
2018-06-14T02:31:33.682Z,89.60
2018-06-14T02:34:02.030Z,89.50
2018-06-14T02:36:30.359Z,89.60
2018-06-14T02:38:58.759Z,89.90
2018-06-14T02:41:27.072Z,90.10
2018-06-14T02:43:55.462Z,90.20
2018-06-14T02:46:23.854Z,90.10
2018-06-14T02:48:52.823Z,90.20
2018-06-14T02:51:21.168Z,90.10
2018-06-14T02:53:49.475Z,90.20
2018-06-14T02:56:17.836Z,90.20
2018-06-14T02:58:46.156Z,90.10
2018-06-14T03:01:14.458Z,90.20
2018-06-14T03:03:42.784Z,90.20
2018-06-14T03:06:11.151Z,90.30
2018-06-14T03:08:39.538Z,90.20
2018-06-14T03:11:07.842Z,90.20
2018-06-14T03:13:36.227Z,90.20
2018-06-14T03:16:04.588Z,90.00
2018-06-14T03:18:32.901Z,89.70
2018-06-14T03:21:03.548Z,90.00
2018-06-14T03:23:32.408Z,90.00
2018-06-14T03:26:00.843Z,90.00
2018-06-14T03:28:29.153Z,90.00
2018-06-14T03:30:57.585Z,90.00
2018-06-14T03:33:25.899Z,90.10
2018-06-14T03:35:54.209Z,90.00
2018-06-14T03:38:22.566Z,89.80
2018-06-14T03:40:57.504Z,89.90
2018-06-14T03:43:25.880Z,89.70
2018-06-14T03:45:54.382Z,89.50
2018-06-14T03:48:22.741Z,89.40
2018-06-14T03:50:51.019Z,89.60
2018-06-14T03:53:19.435Z,89.20
2018-06-14T03:55:47.784Z,89.00
2018-06-14T03:58:16.415Z,89.30
2018-06-14T04:00:44.774Z,88.80
2018-06-14T04:03:13.119Z,88.60
2018-06-14T04:05:41.573Z,88.50
2018-06-14T04:08:10.499Z,88.30
2018-06-14T04:10:38.935Z,88.60
2018-06-14T04:13:07.388Z,88.50
2018-06-14T04:15:36.027Z,88.00
2018-06-14T04:18:05.694Z,88.20
2018-06-14T04:20:34.893Z,87.80
2018-06-14T04:23:03.244Z,88.20
2018-06-14T04:25:31.599Z,88.10
2018-06-14T04:27:59.968Z,88.70
2018-06-14T04:30:28.261Z,87.80
2018-06-14T04:32:56.631Z,87.70
2018-06-14T04:35:24.998Z,87.70
2018-06-14T04:37:53.376Z,87.80
2018-06-14T04:40:21.683Z,87.80
2018-06-14T04:42:49.983Z,88.50
2018-06-14T04:45:18.365Z,87.70
2018-06-14T04:47:46.740Z,87.40
2018-06-14T04:50:15.179Z,87.10
2018-06-14T04:52:43.877Z,87.20
2018-06-14T04:55:12.290Z,86.90
2018-06-14T04:57:40.617Z,86.60
2018-06-14T05:00:10.327Z,87.40
2018-06-14T05:02:38.677Z,86.10
2018-06-14T05:05:07.584Z,86.20
2018-06-14T05:07:35.971Z,86.10
2018-06-14T05:10:04.271Z,85.80
2018-06-14T05:12:32.574Z,85.90
2018-06-14T05:15:00.998Z,85.10
2018-06-14T05:17:29.264Z,84.90
2018-06-14T05:19:57.575Z,85.10
2018-06-14T05:22:25.887Z,84.70
2018-06-14T05:24:54.252Z,84.10
2018-06-14T05:27:22.591Z,83.60
2018-06-14T05:29:51.172Z,82.80
2018-06-14T05:32:19.548Z,82.80
2018-06-14T05:34:47.875Z,83.00
2018-06-14T05:37:16.208Z,82.70
2018-06-14T05:39:44.598Z,82.10
2018-06-14T05:42:12.873Z,81.90
2018-06-14T05:44:41.264Z,82.00
2018-06-14T05:47:09.639Z,81.80
2018-06-14T05:49:37.962Z,81.40
2018-06-14T05:52:06.427Z,82.40
2018-06-14T05:54:34.782Z,81.50
2018-06-14T05:57:03.728Z,81.40
2018-06-14T05:59:32.206Z,81.20
2018-06-14T06:02:00.607Z,81.10
2018-06-14T06:04:28.920Z,81.20
2018-06-14T06:06:57.352Z,80.10
2018-06-14T06:09:26.306Z,80.60
2018-06-14T06:11:54.957Z,79.60
2018-06-14T06:14:23.284Z,79.60
2018-06-14T06:16:51.587Z,78.90
2018-06-14T06:19:19.928Z,79.10
2018-06-14T06:21:48.279Z,78.80
2018-06-14T06:24:16.637Z,78.70
2018-06-14T06:26:45.001Z,78.70
2018-06-14T06:29:13.341Z,78.30
2018-06-14T06:31:41.685Z,78.50
2018-06-14T06:34:10.067Z,77.50
2018-06-14T06:36:38.834Z,77.10
2018-06-14T06:39:08.902Z,77.20
2018-06-14T06:41:37.267Z,77.40
2018-06-14T06:44:05.715Z,77.20
2018-06-14T06:46:34.094Z,76.30
2018-06-14T06:49:02.611Z,76.00
2018-06-14T06:51:30.978Z,76.00
2018-06-14T06:53:59.309Z,75.80
2018-06-14T06:56:27.622Z,75.30
2018-06-14T06:58:56.005Z,74.90
2018-06-14T07:01:24.221Z,75.30
2018-06-14T07:03:52.578Z,75.10
2018-06-14T07:06:20.976Z,75.00
2018-06-14T07:08:49.302Z,74.90
2018-06-14T07:11:17.573Z,74.30
2018-06-14T07:16:20.490Z,73.50
2018-06-14T07:18:49.025Z,73.30
2018-06-14T07:21:17.587Z,73.20
2018-06-14T07:23:45.931Z,73.10
2018-06-14T07:26:14.255Z,72.70
2018-06-14T07:28:42.610Z,72.00
2018-06-14T07:31:11.215Z,71.20
2018-06-14T07:33:39.656Z,70.70
2018-06-14T07:36:08.004Z,70.70
2018-06-14T07:38:36.347Z,69.30
2018-06-14T07:41:04.663Z,69.10
2018-06-14T07:43:32.989Z,70.00
2018-06-14T07:46:01.597Z,69.30
2018-06-14T07:48:29.928Z,68.80
2018-06-14T07:50:58.389Z,69.10
2018-06-14T07:53:26.771Z,69.80
2018-06-14T07:55:55.093Z,69.00
2018-06-14T07:58:23.365Z,68.70
2018-06-14T08:00:51.790Z,67.80
2018-06-14T08:03:20.136Z,68.00
2018-06-14T08:05:48.424Z,67.90
2018-06-14T08:08:16.901Z,66.90
2018-06-14T08:10:45.298Z,67.10
2018-06-14T08:13:13.681Z,67.30
2018-06-14T08:15:42.030Z,65.50
2018-06-14T08:18:10.317Z,67.30
2018-06-14T08:20:38.682Z,67.60
2018-06-14T08:23:07.011Z,66.60
2018-06-14T08:25:35.378Z,66.60
2018-06-14T08:28:03.717Z,65.50
2018-06-14T08:30:32.643Z,65.40
2018-06-14T08:33:01.007Z,64.80
2018-06-14T08:35:29.340Z,64.10
2018-06-14T08:37:57.630Z,63.40
2018-06-14T08:40:26.021Z,62.10
2018-06-14T08:42:54.368Z,61.80
2018-06-14T08:45:22.822Z,61.70
2018-06-14T08:47:51.413Z,62.50
2018-06-14T08:50:19.740Z,60.40
2018-06-14T08:52:48.092Z,59.50
2018-06-14T08:55:16.527Z,59.40
2018-06-14T08:57:44.856Z,59.90
2018-06-14T09:00:13.160Z,59.40
2018-06-14T09:02:41.536Z,59.90
2018-06-14T09:05:09.846Z,60.00
2018-06-14T09:07:38.180Z,60.00
2018-06-14T09:10:06.515Z,59.10
2018-06-14T09:12:34.811Z,59.20
2018-06-14T09:15:03.209Z,58.30
2018-06-14T09:17:31.497Z,59.30
2018-06-14T09:19:59.892Z,59.20
2018-06-14T09:22:28.704Z,59.40
2018-06-14T09:24:57.055Z,59.60
2018-06-14T09:27:26.276Z,59.60
2018-06-14T09:29:54.663Z,59.00
2018-06-14T09:32:22.922Z,58.30
2018-06-14T09:34:51.346Z,57.90
2018-06-14T09:37:19.641Z,56.50
2018-06-14T09:39:47.975Z,57.10
2018-06-14T09:42:16.321Z,57.10
2018-06-14T09:44:44.662Z,57.30
2018-06-14T09:47:13.002Z,55.10
2018-06-14T09:49:41.343Z,56.10
2018-06-14T09:52:09.892Z,55.50
2018-06-14T09:54:38.275Z,56.50
2018-06-14T09:57:06.680Z,56.60
2018-06-14T09:59:35.041Z,56.10
2018-06-14T10:02:03.578Z,56.30
2018-06-14T10:04:31.947Z,56.60
2018-06-14T10:07:00.314Z,56.50
2018-06-14T10:09:28.649Z,56.70
2018-06-14T10:11:56.975Z,56.80
2018-06-14T10:14:25.269Z,56.50
2018-06-14T10:16:53.591Z,57.00
2018-06-14T10:19:21.951Z,55.00
2018-06-14T10:21:50.268Z,56.10
2018-06-14T10:24:18.534Z,56.00
2018-06-14T10:26:46.832Z,56.50
2018-06-14T10:29:15.237Z,56.10
2018-06-14T10:31:43.618Z,55.00
2018-06-14T10:34:11.926Z,55.90
2018-06-14T10:36:40.260Z,55.00
2018-06-14T10:39:09.054Z,54.00
2018-06-14T10:41:37.394Z,54.20
2018-06-14T10:44:05.724Z,54.20
2018-06-14T10:46:33.988Z,55.00
2018-06-14T10:49:02.368Z,55.10
2018-06-14T10:51:30.863Z,54.30
2018-06-14T10:53:59.312Z,54.30
2018-06-14T10:56:27.665Z,53.70
2018-06-14T10:58:56.075Z,53.60
2018-06-14T11:01:24.366Z,53.40
2018-06-14T11:03:52.702Z,52.80
2018-06-14T11:06:21.011Z,52.60
2018-06-14T11:08:49.358Z,52.50
2018-06-14T11:11:17.763Z,54.00
2018-06-14T11:13:46.143Z,54.20
2018-06-14T11:16:14.976Z,53.60
2018-06-14T11:18:43.276Z,53.50
2018-06-14T11:21:11.640Z,52.90
2018-06-14T11:23:39.966Z,53.00
2018-06-14T11:26:08.253Z,51.80
2018-06-14T11:28:36.543Z,51.50
2018-06-14T11:31:05.546Z,51.60
2018-06-14T11:33:33.855Z,50.10
2018-06-14T11:36:02.175Z,50.10
2018-06-14T11:38:30.502Z,50.30
2018-06-14T11:40:58.836Z,50.30
2018-06-14T11:43:27.285Z,50.50
2018-06-14T11:45:55.800Z,51.00
2018-06-14T11:48:24.197Z,50.50
2018-06-14T11:50:53.148Z,49.90
2018-06-14T11:53:21.496Z,50.80
2018-06-14T11:55:49.854Z,51.20
2018-06-14T11:58:18.214Z,51.80
2018-06-14T12:00:46.528Z,51.40
2018-06-14T12:03:14.832Z,51.10
2018-06-14T12:05:43.179Z,51.90
2018-06-14T12:08:11.504Z,52.00
2018-06-14T12:10:39.802Z,51.60
2018-06-14T12:13:08.172Z,52.10
2018-06-14T12:15:37.067Z,52.70
2018-06-14T12:18:05.348Z,52.00
2018-06-14T12:20:33.643Z,51.80
2018-06-14T12:23:01.981Z,52.20
2018-06-14T12:25:30.340Z,52.20
2018-06-14T12:27:58.818Z,52.30
2018-06-14T12:30:27.296Z,52.30
2018-06-14T12:32:55.671Z,52.30
2018-06-14T12:35:24.037Z,51.20
2018-06-14T12:37:52.387Z,52.00
2018-06-14T12:40:20.696Z,52.40
2018-06-14T12:42:49.006Z,52.00
2018-06-14T12:45:17.312Z,52.40
2018-06-14T12:47:45.620Z,51.90
2018-06-14T12:50:13.962Z,51.70
2018-06-14T12:55:10.400Z,52.60
2018-06-14T13:00:06.827Z,52.00
2018-06-14T13:02:35.164Z,52.00
2018-06-14T13:05:03.568Z,51.70
2018-06-14T13:07:31.983Z,52.50
2018-06-14T13:10:00.358Z,51.70
2018-06-14T13:12:28.697Z,52.00
2018-06-14T13:14:57.050Z,51.60
2018-06-14T13:17:25.384Z,52.40
2018-06-14T13:19:53.738Z,52.80
2018-06-14T13:22:22.082Z,53.10
2018-06-14T13:24:50.367Z,52.60
2018-06-14T13:27:18.699Z,52.70
2018-06-14T13:29:47.074Z,51.60
2018-06-14T13:32:15.531Z,51.00
2018-06-14T13:34:43.832Z,51.50
2018-06-14T13:37:12.128Z,52.00
2018-06-14T13:39:40.499Z,51.10
2018-06-14T13:42:08.847Z,51.10
2018-06-14T13:44:37.239Z,50.80
2018-06-14T13:47:05.579Z,51.10
2018-06-14T13:49:33.946Z,50.20
2018-06-14T13:52:02.932Z,50.80
2018-06-14T13:54:31.235Z,50.90
2018-06-14T13:56:59.610Z,51.40
2018-06-14T13:59:27.963Z,50.90
2018-06-14T14:01:56.343Z,51.20
2018-06-14T14:04:24.671Z,52.10
2018-06-14T14:07:10.538Z,52.40
2018-06-14T14:09:38.887Z,53.20
2018-06-14T14:12:07.300Z,53.80
2018-06-14T14:14:35.712Z,56.30
2018-06-14T14:17:04.010Z,58.60
2018-06-14T14:19:32.307Z,59.20
2018-06-14T14:22:00.637Z,59.70
2018-06-14T14:24:28.948Z,59.70
2018-06-14T14:26:57.244Z,61.10
2018-06-14T14:29:25.600Z,61.50
2018-06-14T14:31:53.954Z,63.40
2018-06-14T14:34:22.273Z,63.80
2018-06-14T14:36:50.603Z,63.30
2018-06-14T14:39:19.005Z,62.30
2018-06-14T14:41:47.420Z,62.40
2018-06-14T14:44:15.736Z,62.70
2018-06-14T14:46:44.119Z,63.20
2018-06-14T14:49:12.451Z,64.10
2018-06-14T14:51:40.784Z,64.00
2018-06-14T14:56:37.118Z,65.60
2018-06-14T14:59:05.455Z,66.90
2018-06-14T15:01:33.730Z,66.70
2018-06-14T15:04:02.293Z,68.60
2018-06-14T15:06:30.668Z,69.50
2018-06-14T15:08:59.003Z,70.50
2018-06-14T15:11:27.365Z,72.10
2018-06-14T15:13:55.756Z,71.40
2018-06-14T15:16:24.200Z,72.00
2018-06-14T15:18:52.556Z,72.00
2018-06-14T15:21:20.931Z,73.30
2018-06-14T15:23:49.223Z,72.10
2018-06-14T15:26:17.532Z,72.40
2018-06-14T15:28:45.883Z,73.50
2018-06-14T15:31:14.199Z,75.00
2018-06-14T15:33:42.497Z,77.40
2018-06-14T15:36:10.890Z,77.80
2018-06-14T15:38:39.226Z,79.30
2018-06-14T15:41:07.573Z,80.00
2018-06-14T15:43:35.907Z,80.50
2018-06-14T15:46:04.349Z,81.70
2018-06-14T15:48:32.849Z,81.90
2018-06-14T15:51:01.300Z,81.70
2018-06-14T15:53:29.738Z,83.90
2018-06-14T15:56:10.798Z,84.30
2018-06-14T15:58:39.162Z,85.20
2018-06-14T16:01:07.912Z,85.80
2018-06-14T16:03:36.245Z,85.70
2018-06-14T16:06:04.679Z,85.40
2018-06-14T16:08:33.147Z,87.00
2018-06-14T16:11:01.460Z,85.40
2018-06-14T16:13:29.762Z,87.20
2018-06-14T16:15:58.099Z,86.30
2018-06-14T16:18:26.418Z,86.50
2018-06-14T16:20:54.824Z,87.00
2018-06-14T16:23:23.221Z,86.40
2018-06-14T16:25:51.501Z,87.60
2018-06-14T16:28:19.823Z,87.70
2018-06-14T16:30:48.132Z,87.40
2018-06-14T16:33:16.483Z,88.60
2018-06-14T16:35:44.872Z,89.00
2018-06-14T16:38:13.222Z,88.90
2018-06-14T16:40:41.535Z,89.80
2018-06-14T16:43:10.390Z,90.10
2018-06-14T16:45:38.792Z,90.30
2018-06-14T16:48:07.560Z,90.50
2018-06-14T16:50:36.099Z,90.30
2018-06-14T16:53:04.789Z,91.00
2018-06-14T16:55:33.254Z,90.90
2018-06-14T16:58:01.767Z,91.50
2018-06-14T17:00:30.392Z,91.30
2018-06-14T17:02:58.792Z,92.20
2018-06-14T17:05:27.158Z,91.40
2018-06-14T17:07:55.432Z,91.90
2018-06-14T17:10:23.808Z,92.20
2018-06-14T17:12:52.251Z,92.40
2018-06-14T17:15:20.904Z,92.20
2018-06-14T17:17:49.226Z,92.40
2018-06-14T17:20:17.660Z,92.20
2018-06-14T17:22:46.291Z,92.30
2018-06-14T17:25:14.708Z,92.50
2018-06-14T17:27:43.084Z,92.10
2018-06-14T17:30:11.487Z,92.00
2018-06-14T17:32:39.809Z,92.30
2018-06-14T17:35:08.177Z,92.30
2018-06-14T17:37:36.489Z,92.00
2018-06-14T17:40:04.864Z,92.10
2018-06-14T17:42:33.199Z,91.90
2018-06-14T17:45:01.675Z,92.30
2018-06-14T17:47:29.968Z,91.90
2018-06-14T17:49:58.281Z,92.00
2018-06-14T17:52:26.630Z,92.20
2018-06-14T17:54:55.012Z,92.00
2018-06-14T17:57:23.425Z,92.10
2018-06-14T17:59:52.515Z,92.20
2018-06-14T18:02:20.890Z,92.20
2018-06-14T18:04:49.394Z,92.30
2018-06-14T18:07:17.818Z,92.30
2018-06-14T18:09:46.166Z,92.40
2018-06-14T18:12:14.583Z,92.50
2018-06-14T18:14:42.975Z,92.30
2018-06-14T18:17:11.513Z,92.00
2018-06-14T18:19:39.847Z,92.10
2018-06-14T18:22:08.377Z,92.30
2018-06-14T18:24:36.721Z,92.00
2018-06-14T18:27:05.173Z,92.00
2018-06-14T18:29:33.552Z,91.80
2018-06-14T18:32:01.905Z,91.60
2018-06-14T18:34:30.286Z,91.80
2018-06-14T18:39:26.809Z,91.80
2018-06-14T18:41:55.270Z,91.60
2018-06-14T18:44:23.773Z,91.70
2018-06-14T18:46:51.999Z,91.40
2018-06-14T18:49:20.331Z,91.90
2018-06-14T18:51:48.654Z,91.40
2018-06-14T18:54:17.000Z,91.60
2018-06-14T18:56:45.346Z,91.40
2018-06-14T18:59:13.668Z,91.50
2018-06-14T19:01:41.929Z,91.70
2018-06-14T19:04:10.343Z,91.90
2018-06-14T19:06:38.806Z,92.00
2018-06-14T19:09:08.466Z,92.10
2018-06-14T19:11:36.842Z,92.30
2018-06-14T19:14:05.345Z,92.20
2018-06-14T19:16:33.945Z,92.10
2018-06-14T19:19:02.368Z,92.30
2018-06-14T19:21:31.376Z,92.40
2018-06-14T19:24:00.372Z,92.60
2018-06-14T19:26:28.717Z,92.60
2018-06-14T19:28:57.068Z,92.70
2018-06-14T19:31:25.355Z,92.80
2018-06-14T19:33:53.999Z,93.00
2018-06-14T19:36:22.359Z,93.00
2018-06-14T19:38:50.699Z,93.00
2018-06-14T19:41:19.049Z,93.00
2018-06-14T19:43:47.392Z,92.90
2018-06-14T19:46:15.722Z,92.90
2018-06-14T19:48:44.079Z,93.00
2018-06-14T19:51:12.715Z,93.20
2018-06-14T19:56:05.127Z,92.90
2018-06-14T19:58:33.863Z,93.10
2018-06-14T20:01:02.647Z,93.00
2018-06-14T20:03:31.322Z,93.10
2018-06-14T20:06:00.055Z,93.10
2018-06-14T20:08:29.078Z,93.10
2018-06-14T20:10:57.865Z,93.40
2018-06-14T20:13:27.022Z,93.20
2018-06-14T20:15:55.742Z,93.40
2018-06-14T20:18:24.428Z,93.40
2018-06-14T20:20:53.417Z,93.40
2018-06-14T20:23:22.840Z,93.70
2018-06-14T20:25:51.751Z,94.00
2018-06-14T20:28:20.473Z,94.50
2018-06-14T20:30:50.224Z,94.50
2018-06-14T20:33:18.938Z,94.40
2018-06-14T20:35:48.925Z,94.50
2018-06-14T20:38:17.648Z,94.00
2018-06-14T20:40:48.384Z,93.90
2018-06-14T20:43:17.727Z,93.70
2018-06-14T20:45:47.749Z,93.80
2018-06-14T20:48:17.234Z,94.30
2018-06-14T20:50:46.705Z,94.20
2018-06-14T20:53:15.694Z,93.90
2018-06-14T20:55:45.237Z,93.90
2018-06-14T20:58:14.065Z,94.20
2018-06-14T21:00:42.727Z,94.20
2018-06-14T21:03:11.465Z,94.40
2018-06-14T21:05:40.337Z,94.60
2018-06-14T21:08:09.102Z,94.80
2018-06-14T21:10:38.019Z,95.00
2018-06-14T21:13:06.833Z,95.10
2018-06-14T21:15:36.389Z,94.90
2018-06-14T21:18:05.139Z,94.80
2018-06-14T21:20:33.836Z,95.10
2018-06-14T21:23:03.341Z,95.00
2018-06-14T21:25:32.155Z,95.00
2018-06-14T21:30:29.930Z,95.00
2018-06-14T21:32:58.817Z,94.90
2018-06-14T21:35:27.793Z,95.00
2018-06-14T21:37:56.735Z,94.80
2018-06-14T21:40:25.882Z,94.90
2018-06-14T21:42:54.769Z,94.90
2018-06-14T21:45:23.672Z,94.80
2018-06-14T21:47:52.322Z,94.40
2018-06-14T21:50:21.796Z,94.50
2018-06-14T21:52:50.426Z,94.10
2018-06-14T21:55:19.131Z,94.30
2018-06-14T21:57:47.768Z,93.80
2018-06-14T22:00:16.406Z,94.00
2018-06-14T22:02:50.304Z,93.80
2018-06-14T22:05:18.940Z,94.10
2018-06-14T22:07:47.583Z,94.00
2018-06-14T22:10:16.171Z,94.30
2018-06-14T22:12:44.823Z,94.20
2018-06-14T22:15:13.428Z,94.40
2018-06-14T22:17:41.987Z,94.50
2018-06-14T22:20:10.560Z,94.40
2018-06-14T22:22:39.181Z,94.40
2018-06-14T22:25:07.907Z,94.60
2018-06-14T22:27:36.561Z,94.90
2018-06-14T22:30:05.394Z,94.90
2018-06-14T22:32:34.391Z,94.70
2018-06-14T22:35:38.111Z,94.90
2018-06-14T22:38:06.796Z,95.10
2018-06-14T22:40:35.411Z,95.40
2018-06-14T22:43:04.768Z,95.40
2018-06-14T22:45:33.361Z,95.30
2018-06-14T22:48:01.892Z,95.30
2018-06-14T22:50:41.870Z,94.90
2018-06-14T22:53:11.116Z,94.70
2018-06-14T22:55:39.695Z,94.90
2018-06-14T22:58:08.248Z,95.10
2018-06-14T23:00:47.041Z,95.10
2018-06-14T23:03:15.586Z,95.40
2018-06-14T23:05:44.109Z,95.40
2018-06-14T23:08:12.734Z,95.10
2018-06-14T23:10:52.525Z,95.10
2018-06-14T23:13:21.035Z,95.00
2018-06-14T23:15:49.526Z,95.20
2018-06-14T23:18:18.053Z,95.00
2018-06-14T23:20:46.565Z,95.00
2018-06-14T23:23:15.178Z,95.30
2018-06-14T23:25:43.763Z,95.20
2018-06-14T23:28:12.318Z,95.00
2018-06-14T23:30:40.886Z,95.30
2018-06-14T23:33:10.491Z,94.80
2018-06-14T23:35:39.026Z,94.70
2018-06-14T23:38:07.542Z,94.30
2018-06-14T23:40:36.155Z,94.20
2018-06-14T23:43:04.633Z,94.50
2018-06-14T23:45:33.207Z,94.60
2018-06-14T23:48:01.778Z,94.90
2018-06-14T23:50:30.380Z,94.60
2018-06-14T23:52:58.955Z,94.80
2018-06-14T23:55:27.514Z,94.90
2018-06-14T23:57:56.086Z,94.70
